Downs, IL (61736)

12:31 AM CDT on March 27, 2015 (GMT -0500)
Brentwood Estates | | Change Station
CLOSE
Current Station
Personal Weather Station
Location: Bloomington, IL
Elevation: 873 ft
Nearby Weather Stations

Elev 873 ft 40.42 °N, 88.89 °W | Updated 6 seconds ago

Mostly Cloudy
Mostly Cloudy
31.3 °F
Feels Like 28 °F
N
3.5
Wind Variable Wind from NW
Gusts 3.5 mph

Today
High -- | Low -- °F
--% Chance of Precip.
Yesterday
High -- | Low -- °F
Precip. -- in
6:47 AM 7:14 PM
Waxing Crescent, 49% visible
Pressure 30.11 in
Visibility 10.0 miles
Clouds Few 3400 ft
Overcast 8000 ft
Windchill 28 °F
Dew Point 26 °F
Humidity 82%
Rainfall 0.00 in
Snow Depth Not available.
UV 0 out of 12
Pollen .70 out of 12
Air Quality Not available.
Flu Activity Not available.
METAR KBMI 270456Z AUTO 36007KT 10SM FEW034 OVC080 01/M03 A3007 RMK AO2 T00051027 OVC V BKN SLP196

More Conditions Fewer Conditions

Pressure 30.11 in
Visibility 10.0 miles
Clouds Few 3400 ft
Overcast 8000 ft
Windchill 28 °F
Dew Point 26 °F
Humidity 82%
Rainfall 0.00 in
Snow Depth Not available.
UV 0 out of 12
Pollen .70 out of 12
Air Quality Not available.
Flu Activity Not available.
METAR KBMI 270456Z AUTO 36007KT 10SM FEW034 OVC080 01/M03 A3007 RMK AO2 T00051027 OVC V BKN SLP196

More Conditions Fewer Conditions

10-Day Weather Forecast

Almanac

Astronomy

Mar. 27, 2015 Rise Set
Actual Time
Civil Twilight
Nautical Twilight
Astronomical Twilight
Moon
Length of Visible Light
Length of Day
Tomorrow will be .
, % of the Moon is Illuminated

Today's Extremes

State Highs State Lows

Community

WunderPhotos

Upload Photos

1,808,698 photos uploaded!

WunderBlogs® & News

Nearby

Air Quality

  Air Quality AQ Index Pollutant
Not available.

Snow Depth

Station Depth Elevation

Earthquake Activity

City Distance Mag. Time & Date
Minimum magnitude displayed is 2.5.

Coastal Water Temperatures

Place Temperature

Stations

Nearby Weather Stations

Station Location Temp. Windchill Dew Point Humidity Wind Precip. Elev Updated Type